Weather observations for the past three days for
Newburgh / Stewart
| Date | Time (edt) | Wind (kph) | Vis. (km) | Weather | Sky Cond. | Temperature (ºC) | Relative Humidity | Wind Chill (°C) | Heat Index (°C) | Pressure | Precipitation (cm) | ||||||
|---|---|---|---|---|---|---|---|---|---|---|---|---|---|---|---|---|---|
| Air | Dwpt | 6 hour | altimeter (cm) | sea level (mb) | 1 hr | 3 hr | 6 hr | ||||||||||
| Max. | Min. | ||||||||||||||||
| 04 | 21:45 | SW 11 G 24 | 16.09 | Clear | SKC | 19 | 4 | 37% | 75.72 | 0.0 | |||||||
| 04 | 20:45 | SW 9 | 16.09 | Clear | SKC | 19 | 3 | 35% | 75.67 | 0.0 | |||||||
| 04 | 19:45 | SW 15 G 30 | 16.09 | A Few Clouds | FEW060 | 20 | 3 | 33% | 75.59 | 0.0 | |||||||
| 04 | 18:45 | SW 19 G 37 | 0.00 | A Few Clouds | FEW060 | 21 | 3 | 31% | 75.54 | 0.0 | |||||||
| 04 | 17:45 | SW 19 G 33 | 16.09 | A Few Clouds | FEW060 | 22 | 3 | 29% | 75.54 | 0.0 | |||||||
| 04 | 16:45 | SW 19 G 33 | 16.09 | Partly Cloudy | SCT060 | 22 | 3 | 29% | 75.59 | 0.0 | |||||||
| 04 | 15:45 | W 24 G 35 | 16.09 | Partly Cloudy | SCT060 | 21 | 3 | 31% | 75.62 | 0.0 | |||||||
| 04 | 14:45 | SW 28 G 43 | 16.09 | A Few Clouds | FEW060 | 21 | 2 | 29% | 75.67 | 0.0 | |||||||
| 04 | 13:45 | SW 26 G 37 | 16.09 | A Few Clouds | FEW060 | 20 | 2 | 30% | 75.72 | 0.0 | |||||||
| 04 | 12:45 | W 24 G 46 | 16.09 | A Few Clouds | FEW060 | 19 | 2 | 32% | 75.77 | 0.0 | |||||||
| 04 | 11:45 | SW 26 G 46 | 16.09 | A Few Clouds | FEW060 | 18 | 1 | 32% | 75.79 | 0.0 | |||||||
| 04 | 10:45 | SW 33 G 52 | 16.09 | Clear and Breezy | SKC | 18 | 1 | 32% | 75.84 | 0.0 | |||||||
| 04 | 09:45 | W 33 G 52 | 16.09 | Clear and Breezy | SKC | 16 | 1 | 36% | 75.87 | 0.0 | |||||||
| 04 | 08:45 | W 26 | 16.09 | Clear | SKC | 14 | 0 | 39% | 75.92 | 0.0 | |||||||
| 04 | 07:45 | W 22 | 16.09 | Clear | SKC | 11 | -1 | 44% | 75.92 | 0.0 | |||||||
| 04 | 06:45 | W 19 | 16.09 | Clear | SKC | 8 | 0 | 57% | 5 | 75.92 | 0.0 | ||||||
| 04 | 05:45 | W 19 | 16.09 | Clear | SKC | 8 | -1 | 53% | 5 | 75.9 | 0.0 | ||||||
| 04 | 04:45 | W 19 | 16.09 | Clear | SKC | 8 | -1 | 53% | 5 | 75.9 | 0.0 | ||||||
| 04 | 03:45 | W 11 | 16.09 | Clear | SKC | 7 | -1 | 57% | 5 | 75.9 | 0.0 | ||||||
| 04 | 02:45 | W 7 | 16.09 | Clear | SKC | 8 | -1 | 53% | 7 | 75.9 | 0.0 | ||||||
| 04 | 01:45 | W 9 | 16.09 | Clear | SKC | 8 | -1 | 53% | 7 | 75.87 | 0.0 | ||||||
| 04 | 00:45 | Calm | 16.09 | Clear | SKC | 6 | 1 | 71% | 75.84 | 0.0 | |||||||
| 03 | 23:45 | Calm | 16.09 | Clear | SKC | 7 | 1 | 66% | 75.84 | 0.0 | |||||||
| 03 | 22:45 | Calm | 16.09 | Partly Cloudy | SCT075 | 9 | -1 | 50% | 75.84 | 0.0 | |||||||
| 03 | 21:45 | W 6 | 16.09 | Clear | SKC | 9 | 0 | 54% | 75.84 | 0.0 | |||||||
| 03 | 20:45 | W 11 | 16.09 | Clear | SKC | 10 | -1 | 47% | 9 | 75.82 | 0.0 | ||||||
| 03 | 19:45 | NW 17 | 16.09 | Mostly Cloudy | BKN080 | 13 | -3 | 33% | 75.74 | 0.0 | |||||||
| 03 | 18:45 | NW 19 G 33 | 16.09 | Partly Cloudy | SCT080 | 14 | -4 | 29% | 75.72 | 0.0 | |||||||
| 03 | 17:45 | NW 31 G 46 | 16.09 | Partly Cloudy | SCT080 | 15 | -5 | 25% | 75.69 | 0.0 | |||||||
| 03 | 16:45 | NW 30 G 43 | 16.09 | Partly Cloudy | SCT080 | 14 | -5 | 27% | 75.69 | 0.0 | |||||||
| 03 | 15:45 | NW 15 G 39 | 16.09 | Partly Cloudy | SCT080 | 14 | -4 | 29% | 75.72 | 0.0 | |||||||
| 03 | 14:45 | NW 28 G 46 | 16.09 | Mostly Cloudy | BKN075 | 13 | -4 | 31% | 75.77 | 0.0 | |||||||
| 03 | 12:45 | NW 33 G 48 | 16.09 | Mostly Cloudy and Breezy | BKN075 | 11 | -5 | 32% | 75.82 | 0.0 | |||||||
| 03 | 11:45 | NW 33 G 48 | 16.09 | Mostly Cloudy and Breezy | BKN075 | 10 | -5 | 35% | 7 | 75.82 | 0.0 | ||||||
| 03 | 10:45 | NW 33 G 48 | 16.09 | Mostly Cloudy and Breezy | BKN075 | 9 | -5 | 37% | 5 | 75.84 | 0.0 | ||||||
| 03 | 09:45 | NW 22 G 37 | 16.09 | Mostly Cloudy | BKN080 | 9 | -2 | 46% | 6 | 75.84 | 0.0 | ||||||
| 03 | 08:45 | N 22 G 33 | 16.09 | Mostly Cloudy | BKN080 | 8 | -1 | 53% | 5 | 75.87 | 0.0 | ||||||
| 03 | 07:45 | NW 17 | 16.09 | Mostly Cloudy | BKN080 | 7 | -1 | 57% | 4 | 75.84 | 0.0 | ||||||
| 03 | 06:45 | NW 13 | 16.09 | Mostly Cloudy | BKN080 | 4 | -1 | 70% | 1 | 75.82 | 0.0 | ||||||
| 03 | 05:45 | Vrbl 9 | 16.09 | Mostly Cloudy | BKN070 | 4 | -1 | 70% | 2 | 75.77 | 0.0 | ||||||
| 03 | 02:45 | Vrbl 9 | 16.09 | Partly Cloudy | SCT070 | 7 | 0 | 61% | 5 | 75.79 | 0.0 | ||||||
| 03 | 01:45 | Vrbl 9 | 16.09 | Partly Cloudy | SCT070 | 7 | -1 | 57% | 5 | 75.82 | 0.0 | ||||||
| 02 | 23:45 | Vrbl 9 | 16.09 | Partly Cloudy | SCT070 | 7 | -2 | 53% | 5 | 75.82 | 0.0 | ||||||
| 02 | 22:45 | NW 7 | 11.27 | Mostly Cloudy | BKN075 | 9 | -2 | 46% | 8 | 75.87 | 0.0 | ||||||
| 02 | 21:45 | NW 7 | 11.27 | Mostly Cloudy | BKN075 | 9 | -2 | 46% | 8 | 75.87 | 0.0 | ||||||
| 02 | 20:45 | NW 7 | 16.09 | Mostly Cloudy | BKN075 | 11 | -2 | 41% | 75.82 | 0.0 | |||||||
| 02 | 19:45 | NW 7 | 16.09 | Mostly Cloudy | BKN075 | 11 | -2 | 41% | 75.82 | 0.0 | |||||||
| 02 | 18:45 | NW 22 | 16.09 | Mostly Cloudy | BKN075 | 13 | -2 | 36% | 75.79 | 0.0 | |||||||
| 02 | 17:45 | NW 11 | 16.09 | Mostly Cloudy | BKN075 | 13 | -2 | 36% | 75.74 | 0.0 | |||||||
| 02 | 16:45 | NW 11 | 16.09 | Mostly Cloudy | BKN075 | 14 | -2 | 33% | 75.72 | 0.0 | |||||||
| 02 | 15:45 | N 13 G 30 | 16.09 | Mostly Cloudy | BKN075 | 14 | 5 | 55% | 75.77 | 0.0 | |||||||
| 02 | 14:45 | E 13 | 16.09 | Mostly Cloudy | SCT060 BKN070 | 13 | 6 | 63% | 75.82 | 0.0 | |||||||
| 02 | 13:45 | E 15 | 16.09 | Mostly Cloudy | SCT035 BKN050 | 13 | 7 | 67% | 75.82 | 0.0 | |||||||
| 02 | 12:45 | E 7 | 16.09 | Mostly Cloudy | SCT025 BKN040 | 12 | 5 | 63% | 75.87 | 0.0 | |||||||
| 02 | 11:45 | NE 13 | 16.09 | Mostly Cloudy | SCT025 BKN040 | 11 | 7 | 77% | 75.9 | 0.0 | |||||||
| 02 | 10:45 | NW 15 | 16.09 | Partly Cloudy | BKN025 SCT060 | 9 | 7 | 87% | 7 | 75.9 | 0.0 | ||||||
| 02 | 09:45 | NW 15 | 16.09 | Overcast | SCT025 OVC060 | 9 | 7 | 87% | 7 | 75.95 | 0.0 | ||||||
| 02 | 08:45 | NW 15 | 16.09 | Mostly Cloudy | SCT030 BKN060 | 9 | 8 | 94% | 7 | 75.9 | 0.0 | ||||||
| 02 | 07:45 | W 11 | 16.09 | Mostly Cloudy | SCT050 BKN080 | 9 | 8 | 94% | 8 | 75.9 | 0.0 | ||||||
| 02 | 06:45 | Calm | 16.09 | Mostly Cloudy | SCT050 BKN080 | 9 | 9 | 100% | 75.84 | 0.0 | |||||||
| 02 | 05:45 | Calm | 16.09 | Mostly Cloudy | SCT050 BKN080 | 8 | 8 | 100% | 75.84 | 0.0 | |||||||
| 02 | 04:45 | Calm | 11.27 | Light Rain | BKN030 OVC060 | 8 | 8 | 100% | 75.82 | 0.0 | |||||||
| 02 | 03:45 | W 7 | 16.09 | Overcast | OVC060 | 10 | 5 | 71% | 9 | 75.82 | 0.0 | ||||||
| 02 | 02:45 | W 7 | 16.09 | Overcast | OVC060 | 10 | 5 | 71% | 9 | 75.84 | 0.0 | ||||||
| 02 | 01:45 | W 7 | 16.09 | Overcast | OVC060 | 10 | 7 | 82% | 9 | 75.87 | 0.0 | ||||||
| 02 | 00:45 | W 7 | 16.09 | Overcast | OVC060 | 10 | 7 | 82% | 9 | 75.87 | 0.0 | ||||||
| 01 | 23:45 | Calm | 16.09 | Overcast | OVC060 | 10 | 6 | 76% | 75.84 | 0.0 | |||||||
| 01 | 22:45 | Calm | 16.09 | Overcast | OVC060 | 11 | 5 | 67% | 75.87 | 0.0 | |||||||
| Date | Time (edt) | Wind (kph) | Vis. (km) | Weather | Sky Cond. | Air | Dwpt | Max. | Min. | Relative Humidity | Wind Chill (°C) | Heat Index (°C) | altimeter (cm) | sea level (mb) | 1 hr | 3 hr | 6 hr |
| 6 hour | |||||||||||||||||
| Temperature (ºC) | Pressure | Precipitation (cm) | |||||||||||||||